createdAt,value
2019-04-05T00:00:14.498Z,997.15
2019-04-05T00:01:14.503Z,997.17
2019-04-05T00:02:14.516Z,997.17
2019-04-05T00:03:14.566Z,997.16
2019-04-05T00:04:14.541Z,997.14
2019-04-05T00:05:14.529Z,997.12
2019-04-05T00:06:14.562Z,997.16
2019-04-05T00:07:14.568Z,997.14
2019-04-05T00:08:14.567Z,997.11
2019-04-05T00:09:14.586Z,997.13
2019-04-05T00:10:14.562Z,997.17
2019-04-05T00:11:14.602Z,997.13
2019-04-05T00:12:14.628Z,997.11
2019-04-05T00:13:14.581Z,997.14
2019-04-05T00:14:14.631Z,997.18
2019-04-05T00:15:15.896Z,997.19
2019-04-05T00:16:14.697Z,997.23
2019-04-05T00:17:14.622Z,997.22
2019-04-05T00:18:14.621Z,997.26
2019-04-05T00:19:14.719Z,997.23
2019-04-05T00:20:14.630Z,997.23
2019-04-05T00:21:14.648Z,997.24
2019-04-05T00:22:14.736Z,997.24
2019-04-05T00:23:14.674Z,997.23
2019-04-05T00:24:14.669Z,997.22
2019-04-05T00:25:14.656Z,997.25
2019-04-05T00:26:14.730Z,997.25
2019-04-05T00:27:14.694Z,997.27
2019-04-05T00:28:14.709Z,997.27
2019-04-05T00:29:14.732Z,997.25
2019-04-05T00:30:14.769Z,997.24
2019-04-05T00:31:14.756Z,997.27
2019-04-05T00:32:14.712Z,997.24
2019-04-05T00:33:14.719Z,997.23
2019-04-05T00:34:14.748Z,997.20
2019-04-05T00:35:14.748Z,997.22
2019-04-05T00:36:14.754Z,997.23
2019-04-05T00:37:14.782Z,997.22
2019-04-05T00:38:14.776Z,997.24
2019-04-05T00:39:14.788Z,997.25
2019-04-05T00:40:14.794Z,997.27
2019-04-05T00:41:14.819Z,997.27
2019-04-05T00:42:14.888Z,997.26
2019-04-05T00:43:14.801Z,997.28
2019-04-05T00:44:14.877Z,997.29
2019-04-05T00:45:27.133Z,997.28
2019-04-05T00:46:14.840Z,997.33
2019-04-05T00:47:14.872Z,997.32
2019-04-05T00:48:14.856Z,997.28
2019-04-05T00:49:14.833Z,997.30
2019-04-05T00:50:14.974Z,997.28
2019-04-05T00:51:14.899Z,997.24
2019-04-05T00:52:14.950Z,997.29
2019-04-05T00:53:14.879Z,997.30
2019-04-05T00:54:14.935Z,997.35
2019-04-05T00:55:14.871Z,997.35
2019-04-05T00:56:15.322Z,997.35
2019-04-05T00:57:14.892Z,997.34
2019-04-05T00:58:14.936Z,997.38
2019-04-05T00:59:14.932Z,997.38
2019-04-05T01:00:14.995Z,997.40
2019-04-05T01:01:14.911Z,997.40
2019-04-05T01:02:14.932Z,997.35
2019-04-05T01:03:14.947Z,997.43
2019-04-05T01:04:14.946Z,997.42
2019-04-05T01:05:14.975Z,997.40
2019-04-05T01:06:15.043Z,997.46
2019-04-05T01:07:14.956Z,997.42
2019-04-05T01:08:14.961Z,997.45
2019-04-05T01:09:14.985Z,997.40
2019-04-05T01:10:14.974Z,997.44
2019-04-05T01:11:14.991Z,997.41
2019-04-05T01:12:15.029Z,997.47
2019-04-05T01:13:15.006Z,997.44
2019-04-05T01:14:15.025Z,997.50
2019-04-05T01:15:15.017Z,997.47
2019-04-05T01:16:15.035Z,997.51
2019-04-05T01:17:24.423Z,997.46
2019-04-05T01:18:15.044Z,997.49
2019-04-05T01:19:15.113Z,997.56
2019-04-05T01:20:15.156Z,997.56
2019-04-05T01:21:15.068Z,997.55
2019-04-05T01:22:15.070Z,997.54
2019-04-05T01:23:15.077Z,997.55
2019-04-05T01:24:15.080Z,997.55
2019-04-05T01:25:15.095Z,997.56
2019-04-05T01:26:15.104Z,997.55
2019-04-05T01:27:15.105Z,997.52
2019-04-05T01:28:15.198Z,997.55
2019-04-05T01:29:15.112Z,997.58
2019-04-05T01:30:15.183Z,997.59
2019-04-05T01:31:15.286Z,997.60
2019-04-05T01:32:15.234Z,997.60
2019-04-05T01:33:15.149Z,997.64
2019-04-05T01:34:15.188Z,997.61
2019-04-05T01:35:15.178Z,997.62
2019-04-05T01:36:15.155Z,997.65
2019-04-05T01:37:15.183Z,997.66
2019-04-05T01:38:15.185Z,997.65
2019-04-05T01:39:15.198Z,997.69
2019-04-05T01:40:15.591Z,997.69
2019-04-05T01:41:15.209Z,997.73
2019-04-05T01:42:15.203Z,997.70
2019-04-05T01:43:15.239Z,997.73
2019-04-05T01:44:15.232Z,997.73
2019-04-05T01:45:15.247Z,997.76
2019-04-05T01:46:15.274Z,997.71
2019-04-05T01:47:15.326Z,997.73
2019-04-05T01:48:15.266Z,997.72
2019-04-05T01:49:15.296Z,997.69
2019-04-05T01:50:15.301Z,997.71
2019-04-05T01:51:15.276Z,997.70
2019-04-05T01:52:15.357Z,997.72
2019-04-05T01:53:15.424Z,997.70
2019-04-05T01:54:15.288Z,997.69
2019-04-05T01:55:15.306Z,997.71
2019-04-05T01:56:15.342Z,997.69
2019-04-05T01:57:15.334Z,997.72
2019-04-05T01:58:15.346Z,997.71
2019-04-05T01:59:15.370Z,997.69
2019-04-05T02:00:15.375Z,997.73
2019-04-05T02:01:15.342Z,997.74
2019-04-05T02:02:15.373Z,997.74
2019-04-05T02:03:15.394Z,997.76
2019-04-05T02:04:15.371Z,997.76
2019-04-05T02:05:15.385Z,997.75
2019-04-05T02:06:15.442Z,997.73
2019-04-05T02:07:15.396Z,997.73
2019-04-05T02:08:15.424Z,997.81
2019-04-05T02:09:15.407Z,997.83
2019-04-05T02:10:15.425Z,997.85
2019-04-05T02:11:15.470Z,997.81
2019-04-05T02:12:15.424Z,997.83
2019-04-05T02:13:15.415Z,997.86
2019-04-05T02:14:15.436Z,997.88
2019-04-05T02:15:15.481Z,997.86
2019-04-05T02:16:15.492Z,997.86
2019-04-05T02:17:15.458Z,997.85
2019-04-05T02:18:15.457Z,997.88
2019-04-05T02:19:15.494Z,997.88
2019-04-05T02:20:15.470Z,997.86
2019-04-05T02:21:15.503Z,997.85
2019-04-05T02:22:15.515Z,997.89
2019-04-05T02:23:15.500Z,997.86
2019-04-05T02:24:15.488Z,997.86
2019-04-05T02:25:15.545Z,997.86
2019-04-05T02:26:15.553Z,997.85
2019-04-05T02:27:15.561Z,997.85
2019-04-05T02:28:15.570Z,997.86
2019-04-05T02:29:15.568Z,997.84
2019-04-05T02:30:15.554Z,997.84
2019-04-05T02:31:15.606Z,997.88
2019-04-05T02:32:15.598Z,997.86
2019-04-05T02:33:15.552Z,997.81
2019-04-05T02:34:15.568Z,997.85
2019-04-05T02:35:15.618Z,997.84
2019-04-05T02:36:15.643Z,997.83
2019-04-05T02:37:15.682Z,997.80
2019-04-05T02:38:15.610Z,997.81
2019-04-05T02:39:15.598Z,997.77
2019-04-05T02:40:15.651Z,997.77
2019-04-05T02:41:15.628Z,997.75
2019-04-05T02:42:15.641Z,997.77
2019-04-05T02:43:15.643Z,997.81
2019-04-05T02:44:15.671Z,997.83
2019-04-05T02:45:15.643Z,997.84
2019-04-05T02:46:23.191Z,997.82
2019-04-05T02:47:15.699Z,997.81
2019-04-05T02:48:15.729Z,997.79
2019-04-05T02:49:15.677Z,997.80
2019-04-05T02:50:15.706Z,997.79
2019-04-05T02:51:15.666Z,997.81
2019-04-05T02:52:15.703Z,997.83
2019-04-05T02:53:15.741Z,997.88
2019-04-05T02:54:15.702Z,997.85
2019-04-05T02:55:15.748Z,997.87
2019-04-05T02:56:15.723Z,997.87
2019-04-05T02:57:15.717Z,997.86
2019-04-05T02:58:15.748Z,997.83
2019-04-05T02:59:15.746Z,997.83
2019-04-05T03:00:15.841Z,997.81
2019-04-05T03:01:15.757Z,997.82
2019-04-05T03:02:15.800Z,997.83
2019-04-05T03:03:15.776Z,997.81
2019-04-05T03:04:15.800Z,997.85
2019-04-05T03:05:15.774Z,997.83
2019-04-05T03:06:15.818Z,997.87
2019-04-05T03:07:15.799Z,997.87
2019-04-05T03:08:15.795Z,997.88
2019-04-05T03:09:15.891Z,997.84
2019-04-05T03:10:15.822Z,997.89
2019-04-05T03:11:15.830Z,997.85
2019-04-05T03:12:18.934Z,997.88
2019-04-05T03:13:15.834Z,997.93
2019-04-05T03:14:15.908Z,997.92
2019-04-05T03:15:15.907Z,997.92
2019-04-05T03:16:15.855Z,997.91
2019-04-05T03:17:15.875Z,997.95
2019-04-05T03:18:15.919Z,997.96
2019-04-05T03:19:15.850Z,998.01
2019-04-05T03:20:15.903Z,997.99
2019-04-05T03:21:15.901Z,998.00
2019-04-05T03:22:15.915Z,998.02
2019-04-05T03:23:15.955Z,998.02
2019-04-05T03:24:15.897Z,998.06
2019-04-05T03:25:15.943Z,998.08
2019-04-05T03:26:15.980Z,998.09
2019-04-05T03:27:15.942Z,998.05
2019-04-05T03:28:15.910Z,998.03
2019-04-05T03:29:15.939Z,998.02
2019-04-05T03:30:15.970Z,998.07
2019-04-05T03:31:15.954Z,998.06
2019-04-05T03:32:15.996Z,998.09
2019-04-05T03:33:15.967Z,998.11
2019-04-05T03:34:15.965Z,998.09
2019-04-05T03:35:16.029Z,998.12
2019-04-05T03:36:15.977Z,998.11
2019-04-05T03:37:15.975Z,998.12
2019-04-05T03:38:15.992Z,998.12
2019-04-05T03:39:16.002Z,998.13
2019-04-05T03:40:16.051Z,998.11
2019-04-05T03:41:16.047Z,998.17
2019-04-05T03:42:16.012Z,998.15
2019-04-05T03:43:16.024Z,998.16
2019-04-05T03:44:16.019Z,998.17
2019-04-05T03:45:16.050Z,998.17
2019-04-05T03:46:16.146Z,998.16
2019-04-05T03:47:16.058Z,998.20
2019-04-05T03:48:16.064Z,998.26
2019-04-05T03:49:16.098Z,998.20
2019-04-05T03:50:16.132Z,998.18
2019-04-05T03:51:16.071Z,998.20
2019-04-05T03:52:16.137Z,998.22
2019-04-05T03:53:16.098Z,998.19
2019-04-05T03:54:16.090Z,998.20
2019-04-05T03:55:16.090Z,998.23
2019-04-05T03:56:16.107Z,998.24
2019-04-05T03:57:16.187Z,998.27
2019-04-05T03:58:16.119Z,998.26
2019-04-05T03:59:16.116Z,998.29
2019-04-05T04:00:16.116Z,998.28
2019-04-05T04:01:16.144Z,998.30
2019-04-05T04:02:16.153Z,998.27
2019-04-05T04:03:16.199Z,998.27
2019-04-05T04:04:16.186Z,998.30
2019-04-05T04:05:16.140Z,998.32
2019-04-05T04:06:16.231Z,998.31
2019-04-05T04:07:16.204Z,998.27
2019-04-05T04:08:16.206Z,998.35
2019-04-05T04:09:16.211Z,998.31
2019-04-05T04:10:16.202Z,998.34
2019-04-05T04:11:16.218Z,998.31
2019-04-05T04:12:16.246Z,998.33
2019-04-05T04:13:16.243Z,998.35
2019-04-05T04:14:16.223Z,998.33
2019-04-05T04:15:16.254Z,998.40
2019-04-05T04:16:16.261Z,998.34
2019-04-05T04:17:16.268Z,998.39
2019-04-05T04:18:16.333Z,998.41
2019-04-05T04:19:16.268Z,998.42
2019-04-05T04:20:16.263Z,998.42
2019-04-05T04:21:16.289Z,998.40
2019-04-05T04:22:16.323Z,998.43
2019-04-05T04:23:16.307Z,998.43
2019-04-05T04:24:16.325Z,998.44
2019-04-05T04:25:16.303Z,998.47
2019-04-05T04:26:16.290Z,998.49
2019-04-05T04:27:16.287Z,998.51
2019-04-05T04:28:16.376Z,998.50
2019-04-05T04:29:16.379Z,998.53
2019-04-05T04:30:16.347Z,998.56
2019-04-05T04:31:16.312Z,998.59
2019-04-05T04:32:16.343Z,998.62
2019-04-05T04:33:16.415Z,998.64
2019-04-05T04:34:16.325Z,998.64
2019-04-05T04:35:16.334Z,998.67
2019-04-05T04:36:16.350Z,998.64
2019-04-05T04:37:16.385Z,998.70
2019-04-05T04:38:16.380Z,998.72
2019-04-05T04:39:16.455Z,998.73
2019-04-05T04:40:16.449Z,998.75
2019-04-05T04:41:16.388Z,998.74
2019-04-05T04:42:16.410Z,998.76
2019-04-05T04:43:16.379Z,998.82
2019-04-05T04:44:16.394Z,998.77
2019-04-05T04:45:16.406Z,998.79
2019-04-05T04:46:16.463Z,998.79
2019-04-05T04:47:26.518Z,998.84
2019-04-05T04:48:16.415Z,998.84
2019-04-05T04:49:16.424Z,998.87
2019-04-05T04:50:16.451Z,998.85
2019-04-05T04:51:16.431Z,998.89
2019-04-05T04:52:16.424Z,998.94
2019-04-05T04:53:16.543Z,998.97
2019-04-05T04:54:16.481Z,999.01
2019-04-05T04:55:16.450Z,998.97
2019-04-05T04:56:16.495Z,999.00
2019-04-05T04:57:16.491Z,998.99
2019-04-05T04:58:16.476Z,999.00
2019-04-05T04:59:16.590Z,999.02
2019-04-05T05:00:16.792Z,999.05
2019-04-05T05:01:16.704Z,999.06
2019-04-05T05:02:17.030Z,999.03
2019-04-05T05:03:16.515Z,999.09
2019-04-05T05:04:16.556Z,999.12
2019-04-05T05:05:16.852Z,999.15
2019-04-05T05:06:16.705Z,999.17
2019-04-05T05:07:16.583Z,999.19
2019-04-05T05:08:16.654Z,999.20
2019-04-05T05:09:16.667Z,999.19
2019-04-05T05:10:16.575Z,999.19
2019-04-05T05:11:16.596Z,999.20
2019-04-05T05:12:16.572Z,999.26
2019-04-05T05:13:16.563Z,999.23
2019-04-05T05:14:16.615Z,999.26
2019-04-05T05:15:16.586Z,999.33
2019-04-05T05:16:16.586Z,999.31
2019-04-05T05:17:17.713Z,999.33
2019-04-05T05:18:17.463Z,999.37
2019-04-05T05:19:16.953Z,999.35
2019-04-05T05:20:16.648Z,999.38
2019-04-05T05:21:16.680Z,999.41
2019-04-05T05:22:16.667Z,999.38
2019-04-05T05:23:16.673Z,999.44
2019-04-05T05:24:16.682Z,999.43
2019-04-05T05:25:16.659Z,999.45
2019-04-05T05:26:16.823Z,999.49
2019-04-05T05:27:16.759Z,999.47
2019-04-05T05:28:16.700Z,999.46
2019-04-05T05:29:16.684Z,999.43
2019-04-05T05:30:16.822Z,999.42
2019-04-05T05:31:16.776Z,999.46
2019-04-05T05:32:16.702Z,999.51
2019-04-05T05:33:16.726Z,999.52
2019-04-05T05:34:16.750Z,999.53
2019-04-05T05:35:19.722Z,999.56
2019-04-05T05:36:16.902Z,999.57
2019-04-05T05:37:17.082Z,999.61
2019-04-05T05:38:17.168Z,999.60
2019-04-05T05:39:17.475Z,999.61
2019-04-05T05:40:17.076Z,999.63
2019-04-05T05:41:16.978Z,999.65
2019-04-05T05:42:17.056Z,999.62
2019-04-05T05:43:17.168Z,999.71
2019-04-05T05:44:17.378Z,999.72
2019-04-05T05:45:17.011Z,999.76
2019-04-05T05:46:17.062Z,999.65
2019-04-05T05:47:18.111Z,999.60
2019-04-05T05:48:16.960Z,999.81
2019-04-05T05:49:17.205Z,999.84
2019-04-05T05:50:17.236Z,999.86
2019-04-05T05:51:18.740Z,999.87
2019-04-05T05:52:17.545Z,999.88
2019-04-05T05:53:17.021Z,999.85
2019-04-05T05:54:17.370Z,999.88
2019-04-05T05:55:18.457Z,999.89
2019-04-05T05:56:16.985Z,999.87
2019-04-05T05:57:17.076Z,999.86
2019-04-05T05:58:16.915Z,999.85
2019-04-05T05:59:16.919Z,999.90
2019-04-05T06:00:16.964Z,999.92
2019-04-05T06:01:16.970Z,999.94
2019-04-05T06:02:16.953Z,999.98
2019-04-05T06:03:16.964Z,999.97
2019-04-05T06:04:16.961Z,999.98
2019-04-05T06:05:17.032Z,1000.00
2019-04-05T06:06:17.059Z,999.93
2019-04-05T06:07:19.955Z,999.95
2019-04-05T06:08:17.005Z,999.94
2019-04-05T06:09:17.025Z,999.96
2019-04-05T06:10:17.037Z,999.98
2019-04-05T06:11:17.043Z,999.98
2019-04-05T06:12:17.078Z,999.93
2019-04-05T06:13:17.080Z,999.99
2019-04-05T06:14:17.065Z,999.97
2019-04-05T06:15:17.179Z,1000.00
2019-04-05T06:16:17.087Z,999.96
2019-04-05T06:17:17.155Z,999.95
2019-04-05T06:18:17.116Z,999.97
2019-04-05T06:19:17.163Z,999.98
2019-04-05T06:20:17.135Z,999.98
2019-04-05T06:21:17.145Z,1000.00
2019-04-05T06:22:17.245Z,999.99
2019-04-05T06:23:17.248Z,1000.02
2019-04-05T06:24:17.309Z,1000.05
2019-04-05T06:25:17.199Z,1000.09
2019-04-05T06:26:17.209Z,1000.07
2019-04-05T06:27:17.222Z,1000.08
2019-04-05T06:28:17.286Z,1000.08
2019-04-05T06:29:17.234Z,1000.14
2019-04-05T06:30:17.241Z,1000.12
2019-04-05T06:31:17.271Z,1000.13
2019-04-05T06:32:17.370Z,1000.16
2019-04-05T06:33:30.686Z,1000.16
2019-04-05T06:34:17.424Z,1000.16
2019-04-05T06:35:17.297Z,1000.15
2019-04-05T06:36:17.324Z,1000.13
2019-04-05T06:37:17.363Z,1000.11
2019-04-05T06:38:17.386Z,1000.15
2019-04-05T06:39:17.345Z,1000.15
2019-04-05T06:40:17.420Z,1000.15
2019-04-05T06:41:17.371Z,1000.17
2019-04-05T06:42:17.410Z,1000.19
2019-04-05T06:43:17.384Z,1000.23
2019-04-05T06:44:17.401Z,1000.25
2019-04-05T06:45:17.427Z,1000.28
2019-04-05T06:46:17.454Z,1000.28
2019-04-05T06:47:17.478Z,1000.29
2019-04-05T06:48:19.336Z,1000.29
2019-04-05T06:49:17.437Z,1000.27
2019-04-05T06:50:17.481Z,1000.32
2019-04-05T06:51:17.475Z,1000.29
2019-04-05T06:52:17.489Z,1000.28
2019-04-05T06:53:17.509Z,1000.31
2019-04-05T06:54:17.498Z,1000.29
2019-04-05T06:55:17.516Z,1000.33
2019-04-05T06:56:17.541Z,1000.33
2019-04-05T06:57:17.545Z,1000.35
2019-04-05T06:58:20.642Z,1000.35
2019-04-05T06:59:19.290Z,1000.37
2019-04-05T07:00:17.540Z,1000.37
2019-04-05T07:01:17.560Z,1000.38
2019-04-05T07:02:18.547Z,1000.41
2019-04-05T07:03:17.570Z,1000.41
2019-04-05T07:04:17.752Z,1000.43
2019-04-05T07:05:17.593Z,1000.44
2019-04-05T07:06:17.645Z,1000.45
2019-04-05T07:07:17.974Z,1000.47
2019-04-05T07:08:18.480Z,1000.52
2019-04-05T07:09:17.623Z,1000.56
2019-04-05T07:10:17.630Z,1000.61
2019-04-05T07:11:17.688Z,1000.67
2019-04-05T07:12:20.437Z,1000.71
2019-04-05T07:13:17.677Z,1000.67
2019-04-05T07:14:17.705Z,1000.76
2019-04-05T07:15:17.703Z,1000.78
2019-04-05T07:16:17.719Z,1000.83
2019-04-05T07:17:17.743Z,1000.81
2019-04-05T07:18:17.746Z,1000.85
2019-04-05T07:19:17.722Z,1000.86
2019-04-05T07:20:17.780Z,1000.82
2019-04-05T07:21:17.753Z,1000.82
2019-04-05T07:22:17.773Z,1000.83
2019-04-05T07:23:17.749Z,1000.89
2019-04-05T07:24:17.765Z,1000.93
2019-04-05T07:25:17.778Z,1000.92
2019-04-05T07:26:20.729Z,1000.93
2019-04-05T07:27:17.830Z,1000.89
2019-04-05T07:28:17.801Z,1000.89
2019-04-05T07:29:17.824Z,1000.84
2019-04-05T07:30:17.817Z,1000.98
2019-04-05T07:31:17.820Z,1000.98
2019-04-05T07:32:17.853Z,1001.02
2019-04-05T07:33:17.884Z,1001.03
2019-04-05T07:34:17.832Z,1001.04
2019-04-05T07:35:17.903Z,1001.07
2019-04-05T07:36:17.856Z,1001.06
2019-04-05T07:37:17.943Z,1001.05
2019-04-05T07:38:17.906Z,1001.09
2019-04-05T07:39:17.916Z,1001.08
2019-04-05T07:40:17.912Z,1001.10
2019-04-05T07:41:17.920Z,1001.13
2019-04-05T07:42:17.980Z,1001.16
2019-04-05T07:43:17.927Z,1001.20
2019-04-05T07:44:17.991Z,1001.23
2019-04-05T07:45:17.970Z,1001.24
2019-04-05T07:46:17.962Z,1001.23
2019-04-05T07:47:17.973Z,1001.19
2019-04-05T07:48:17.970Z,1001.22
2019-04-05T07:49:17.997Z,1001.20
2019-04-05T07:50:18.021Z,1001.24
2019-04-05T07:51:17.999Z,1001.25
2019-04-05T07:52:18.048Z,1001.30
2019-04-05T07:53:18.013Z,1001.25
2019-04-05T07:54:18.019Z,1001.24
2019-04-05T07:55:18.097Z,1001.25
2019-04-05T07:56:18.045Z,1001.31
2019-04-05T07:57:18.093Z,1001.28
2019-04-05T07:58:18.051Z,1001.30
2019-04-05T07:59:20.811Z,1001.31
2019-04-05T08:00:18.109Z,1001.33
2019-04-05T08:01:18.114Z,1001.34
2019-04-05T08:02:18.133Z,1001.36
2019-04-05T08:03:18.106Z,1001.35
2019-04-05T08:04:18.119Z,1001.29
2019-04-05T08:05:18.220Z,1001.29
2019-04-05T08:06:18.147Z,1001.28
2019-04-05T08:07:18.154Z,1001.32
2019-04-05T08:08:18.166Z,1001.31
2019-04-05T08:09:18.185Z,1001.36
2019-04-05T08:10:18.187Z,1001.38
2019-04-05T08:11:18.189Z,1001.36
2019-04-05T08:12:18.264Z,1001.40
2019-04-05T08:13:18.200Z,1001.39
2019-04-05T08:14:18.389Z,1001.39
2019-04-05T08:15:18.214Z,1001.37
2019-04-05T08:16:18.216Z,1001.39
2019-04-05T08:17:18.263Z,1001.39
2019-04-05T08:18:18.253Z,1001.39
2019-04-05T08:19:18.244Z,1001.40
2019-04-05T08:20:18.267Z,1001.41
2019-04-05T08:21:18.253Z,1001.38
2019-04-05T08:22:18.311Z,1001.33
2019-04-05T08:23:18.265Z,1001.35
2019-04-05T08:24:18.327Z,1001.34
2019-04-05T08:25:18.377Z,1001.34
2019-04-05T08:26:18.305Z,1001.30
2019-04-05T08:27:18.341Z,1001.31
2019-04-05T08:28:18.307Z,1001.31
2019-04-05T08:29:18.367Z,1001.33
2019-04-05T08:30:18.364Z,1001.29
2019-04-05T08:31:18.340Z,1001.29
2019-04-05T08:32:18.354Z,1001.32
2019-04-05T08:33:18.371Z,1001.32
2019-04-05T08:34:18.396Z,1001.35
2019-04-05T08:35:18.478Z,1001.36
2019-04-05T08:36:18.397Z,1001.36
2019-04-05T08:37:18.441Z,1001.34
2019-04-05T08:38:18.486Z,1001.36
2019-04-05T08:39:18.446Z,1001.37
2019-04-05T08:40:18.481Z,1001.41
2019-04-05T08:41:18.430Z,1001.42
2019-04-05T08:42:18.482Z,1001.41
2019-04-05T08:43:18.453Z,1001.39
2019-04-05T08:44:18.474Z,1001.42
2019-04-05T08:45:18.513Z,1001.41
2019-04-05T08:46:18.531Z,1001.42
2019-04-05T08:47:18.525Z,1001.42
2019-04-05T08:48:18.540Z,1001.44
2019-04-05T08:49:18.502Z,1001.41
2019-04-05T08:50:18.511Z,1001.40
2019-04-05T08:51:18.578Z,1001.42
2019-04-05T08:52:18.536Z,1001.42
2019-04-05T08:53:18.576Z,1001.43
2019-04-05T08:54:31.539Z,1001.42
2019-04-05T08:55:18.554Z,1001.47
2019-04-05T08:56:18.570Z,1001.41
2019-04-05T08:57:18.607Z,1001.42
2019-04-05T08:58:18.599Z,1001.38
2019-04-05T08:59:18.609Z,1001.38
2019-04-05T09:00:18.597Z,1001.38
2019-04-05T09:01:18.603Z,1001.39
2019-04-05T09:02:18.682Z,1001.41
2019-04-05T09:03:18.634Z,1001.38
2019-04-05T09:04:18.641Z,1001.41
2019-04-05T09:05:18.647Z,1001.42
2019-04-05T09:06:18.677Z,1001.42
2019-04-05T09:07:18.746Z,1001.47
2019-04-05T09:08:21.284Z,1001.50
2019-04-05T09:09:18.709Z,1001.47
2019-04-05T09:10:18.711Z,1001.53
2019-04-05T09:11:18.713Z,1001.49
2019-04-05T09:12:18.811Z,1001.47
2019-04-05T09:13:18.706Z,1001.49
2019-04-05T09:14:20.863Z,1001.52
2019-04-05T09:15:18.766Z,1001.53
2019-04-05T09:16:18.739Z,1001.53
2019-04-05T09:17:18.751Z,1001.52
2019-04-05T09:18:18.828Z,1001.57
2019-04-05T09:19:23.960Z,1001.58
2019-04-05T09:20:18.795Z,1001.61
2019-04-05T09:21:18.816Z,1001.63
2019-04-05T09:22:18.810Z,1001.62
2019-04-05T09:23:18.862Z,1001.62
2019-04-05T09:24:18.871Z,1001.66
2019-04-05T09:25:19.905Z,1001.71
2019-04-05T09:26:18.824Z,1001.77
2019-04-05T09:27:18.910Z,1001.78
2019-04-05T09:28:18.836Z,1001.79
2019-04-05T09:29:19.961Z,1001.77
2019-04-05T09:30:18.890Z,1001.76
2019-04-05T09:31:18.894Z,1001.75
2019-04-05T09:32:18.912Z,1001.71
2019-04-05T09:33:18.950Z,1001.74
2019-04-05T09:34:19.034Z,1001.73
2019-04-05T09:35:18.920Z,1001.76
2019-04-05T09:36:18.971Z,1001.74
2019-04-05T09:37:18.939Z,1001.77
2019-04-05T09:38:19.006Z,1001.78
2019-04-05T09:39:18.996Z,1001.81
2019-04-05T09:40:21.181Z,1001.80
2019-04-05T09:41:19.030Z,1001.78
2019-04-05T09:42:18.970Z,1001.78
2019-04-05T09:43:18.990Z,1001.78
2019-04-05T09:44:19.008Z,1001.81
2019-04-05T09:45:19.030Z,1001.82
2019-04-05T09:46:19.044Z,1001.84
2019-04-05T09:47:19.017Z,1001.85
2019-04-05T09:48:19.032Z,1001.83
2019-04-05T09:49:19.068Z,1001.83
2019-04-05T09:50:19.091Z,1001.86
2019-04-05T09:51:19.085Z,1001.89
2019-04-05T09:52:19.060Z,1001.92
2019-04-05T09:53:19.105Z,1001.96
2019-04-05T09:54:19.153Z,1001.90
2019-04-05T09:55:19.082Z,1001.93
2019-04-05T09:56:19.106Z,1001.92
2019-04-05T09:57:19.129Z,1001.93
2019-04-05T09:58:19.130Z,1001.93
2019-04-05T09:59:19.188Z,1001.95
2019-04-05T10:00:19.157Z,1001.98
2019-04-05T10:01:19.168Z,1001.96
2019-04-05T10:02:19.160Z,1002.01
2019-04-05T10:03:19.169Z,1002.05
2019-04-05T10:04:19.168Z,1002.03
2019-04-05T10:05:19.235Z,1002.04
2019-04-05T10:06:19.291Z,1002.11
2019-04-05T10:07:19.208Z,1002.09
2019-04-05T10:08:19.255Z,1002.08
2019-04-05T10:09:19.215Z,1002.08
2019-04-05T10:10:19.263Z,1002.14
2019-04-05T10:11:19.230Z,1002.20
2019-04-05T10:12:19.276Z,1002.21
2019-04-05T10:13:19.250Z,1002.18
2019-04-05T10:14:19.268Z,1002.20
2019-04-05T10:15:21.590Z,1002.23
2019-04-05T10:16:19.304Z,1002.22
2019-04-05T10:17:19.329Z,1002.27
2019-04-05T10:18:19.333Z,1002.27
2019-04-05T10:19:19.323Z,1002.29
2019-04-05T10:20:19.336Z,1002.31
2019-04-05T10:21:19.345Z,1002.30
2019-04-05T10:22:19.344Z,1002.29
2019-04-05T10:23:19.348Z,1002.30
2019-04-05T10:24:19.463Z,1002.30
2019-04-05T10:25:19.371Z,1002.29
2019-04-05T10:26:19.391Z,1002.34
2019-04-05T10:27:19.398Z,1002.34
2019-04-05T10:28:19.382Z,1002.36
2019-04-05T10:29:19.435Z,1002.31
2019-04-05T10:30:19.447Z,1002.31
2019-04-05T10:31:19.487Z,1002.29
2019-04-05T10:32:19.433Z,1002.32
2019-04-05T10:33:19.435Z,1002.30
2019-04-05T10:34:19.496Z,1002.32
2019-04-05T10:35:19.461Z,1002.33
2019-04-05T10:36:20.122Z,1002.30
2019-04-05T10:37:19.511Z,1002.32
2019-04-05T10:38:19.491Z,1002.37
2019-04-05T10:39:19.482Z,1002.34
2019-04-05T10:40:19.525Z,1002.38
2019-04-05T10:41:19.537Z,1002.37
2019-04-05T10:42:19.549Z,1002.33
2019-04-05T10:43:19.551Z,1002.34
2019-04-05T10:44:19.575Z,1002.38
2019-04-05T10:45:19.588Z,1002.38
2019-04-05T10:46:19.592Z,1002.40
2019-04-05T10:47:19.624Z,1002.40
2019-04-05T10:48:19.644Z,1002.38
2019-04-05T10:49:19.904Z,1002.40
2019-04-05T10:50:19.615Z,1002.40
2019-04-05T10:51:19.601Z,1002.43
2019-04-05T10:52:19.733Z,1002.48
2019-04-05T10:53:19.765Z,1002.48
2019-04-05T10:54:19.630Z,1002.52
2019-04-05T10:55:19.692Z,1002.54
2019-04-05T10:56:19.649Z,1002.48
2019-04-05T10:57:19.681Z,1002.48
2019-04-05T10:58:19.705Z,1002.51
2019-04-05T10:59:19.719Z,1002.47
2019-04-05T11:00:19.723Z,1002.52
2019-04-05T11:01:19.701Z,1002.54
2019-04-05T11:02:19.711Z,1002.49
2019-04-05T11:03:19.719Z,1002.51
2019-04-05T11:04:19.804Z,1002.53
2019-04-05T11:05:19.754Z,1002.49
2019-04-05T11:06:19.765Z,1002.55
2019-04-05T11:07:19.748Z,1002.56
2019-04-05T11:08:19.772Z,1002.55
2019-04-05T11:09:19.889Z,1002.57
2019-04-05T11:10:19.819Z,1002.55
2019-04-05T11:11:19.805Z,1002.56
2019-04-05T11:12:19.806Z,1002.65
2019-04-05T11:13:19.816Z,1002.68
2019-04-05T11:14:19.846Z,1002.68
2019-04-05T11:15:19.883Z,1002.69
2019-04-05T11:16:19.883Z,1002.70
2019-04-05T11:17:19.883Z,1002.73
2019-04-05T11:18:19.893Z,1002.73
2019-04-05T11:19:19.959Z,1002.70
2019-04-05T11:20:21.887Z,1002.71
2019-04-05T11:21:19.915Z,1002.72
2019-04-05T11:22:20.962Z,1002.74
2019-04-05T11:23:21.448Z,1002.80
2019-04-05T11:24:19.944Z,1002.79
2019-04-05T11:25:20.901Z,1002.74
2019-04-05T11:26:19.985Z,1002.76
2019-04-05T11:27:19.960Z,1002.74
2019-04-05T11:28:20.002Z,1002.70
2019-04-05T11:29:19.979Z,1002.70
2019-04-05T11:30:19.979Z,1002.74
2019-04-05T11:31:20.041Z,1002.70
2019-04-05T11:32:20.019Z,1002.66
2019-04-05T11:33:20.169Z,1002.71
2019-04-05T11:34:20.041Z,1002.69
2019-04-05T11:35:20.094Z,1002.71
2019-04-05T11:36:20.148Z,1002.73
2019-04-05T11:37:20.059Z,1002.71
2019-04-05T11:38:20.080Z,1002.71
2019-04-05T11:39:20.146Z,1002.69
2019-04-05T11:40:20.084Z,1002.73
2019-04-05T11:41:20.131Z,1002.75
2019-04-05T11:42:20.115Z,1002.73
2019-04-05T11:43:20.116Z,1002.74
2019-04-05T11:44:20.119Z,1002.73
2019-04-05T11:45:20.290Z,1002.73
2019-04-05T11:46:20.174Z,1002.76
2019-04-05T11:47:20.227Z,1002.74
2019-04-05T11:48:20.168Z,1002.80
2019-04-05T11:49:20.210Z,1002.78
2019-04-05T11:50:20.218Z,1002.84
2019-04-05T11:51:20.281Z,1002.81
2019-04-05T11:52:20.237Z,1002.84
2019-04-05T11:53:22.031Z,1002.81
2019-04-05T11:54:20.309Z,1002.82
2019-04-05T11:55:20.246Z,1002.83
2019-04-05T11:56:20.560Z,1002.84
2019-04-05T11:57:20.414Z,1002.76
2019-04-05T11:58:20.400Z,1002.81
2019-04-05T11:59:20.283Z,1002.85
2019-04-05T12:00:20.288Z,1002.84
2019-04-05T12:01:23.242Z,1002.78
2019-04-05T12:02:20.339Z,1002.78
2019-04-05T12:03:20.374Z,1002.81
2019-04-05T12:04:20.391Z,1002.84
2019-04-05T12:05:22.507Z,1002.83
2019-04-05T12:06:20.405Z,1002.83
2019-04-05T12:07:24.003Z,1002.83
2019-04-05T12:08:20.389Z,1002.83
2019-04-05T12:09:20.444Z,1002.84
2019-04-05T12:10:20.419Z,1002.84
2019-04-05T12:11:20.440Z,1002.83
2019-04-05T12:12:20.467Z,1002.80
2019-04-05T12:13:20.452Z,1002.77
2019-04-05T12:14:30.074Z,1002.76
2019-04-05T12:15:20.467Z,1002.81
2019-04-05T12:16:21.277Z,1002.84
2019-04-05T12:17:20.487Z,1002.87